Time;durP1;ratioP1;P1;durP2;ratioP2;P2;SDS_P1;SDS_P2;PMS_P1;PMS_P2;Temp;Humidity;BMP_temperature;BMP_pressure;BME280_temperature;BME280_humidity;BME280_pressure;Samples;Min_cycle;Max_cycle;Signal;HPM_P1;HPM_P2
2022/05/18 00:01:26;;;;;;;;;;;;;;;14.61;100.00;97499.38;10236214;28;20066;-59
2022/05/18 00:06:25;;;;;;;17.38;12.35;;;;;;;14.55;100.00;97482.09;10251667;28;19910;-59
2022/05/18 00:11:24;;;;;;;;;;;;;;;14.55;100.00;97465.59;10249537;28;20158;-58
2022/05/18 00:16:25;;;;;;;21.40;13.85;;;;;;;14.54;100.00;97458.63;10237903;28;20064;-58
2022/05/18 00:21:25;;;;;;;23.05;15.45;;;;;;;14.40;100.00;97410.19;10251542;28;20070;-58
2022/05/18 00:26:25;;;;;;;20.27;14.70;;;;;;;14.49;100.00;97431.75;10250477;28;20502;-58
2022/05/18 00:31:24;;;;;;;20.58;15.63;;;;;;;14.39;100.00;97423.28;10250710;28;20074;-58
2022/05/18 00:36:23;;;;;;;21.60;15.23;;;;;;;14.35;100.00;97429.44;10264932;28;20054;-58
2022/05/18 00:41:23;;;;;;;19.48;14.43;;;;;;;14.12;100.00;97438.59;10233012;28;20134;-58
2022/05/18 00:46:22;;;;;;;23.13;14.40;;;;;;;13.82;100.00;97406.19;10250112;28;20127;-58
2022/05/18 00:51:29;;;;;;;19.77;14.38;;;;;;;13.89;100.00;97426.03;10249842;28;20073;-58
2022/05/18 00:56:35;;;;;;;24.83;17.60;;;;;;;13.78;100.00;97441.03;10233839;28;20062;-58
2022/05/18 01:01:34;;;;;;;23.48;16.90;;;;;;;13.74;100.00;97436.75;10250755;28;20077;-58
2022/05/18 01:06:54;;;;;;;26.38;18.17;;;;;;;13.70;100.00;97435.06;10255191;28;20076;-58
2022/05/18 01:11:53;;;;;;;25.98;16.90;;;;;;;13.64;100.00;97437.81;10257114;28;20073;-58
2022/05/18 01:16:53;;;;;;;24.42;15.93;;;;;;;13.58;100.00;97443.97;10257572;28;20026;-58
2022/05/18 01:22:09;;;;;;;22.73;15.70;;;;;;;13.47;100.00;97446.75;10258161;28;20081;-58
2022/05/18 01:27:09;;;;;;;23.80;16.70;;;;;;;13.38;100.00;97446.94;10255237;28;20058;-58
2022/05/18 01:32:14;;;;;;;26.95;18.10;;;;;;;13.41;100.00;97440.78;10257279;28;20093;-58
2022/05/18 01:37:14;;;;;;;25.42;17.92;;;;;;;13.40;100.00;97429.53;10266585;28;20509;-58
2022/05/18 01:42:40;;;;;;;27.88;18.77;;;;;;;13.44;100.00;97428.56;10256675;28;20065;-58
2022/05/18 01:47:40;;;;;;;28.30;18.38;;;;;;;13.46;100.00;97423.31;10256567;28;20069;-58
2022/05/18 01:52:41;;;;;;;30.05;19.27;;;;;;;13.47;100.00;97418.09;10255565;28;20080;-58
2022/05/18 01:57:40;;;;;;;30.42;19.35;;;;;;;13.48;100.00;97416.34;10256992;28;20069;-58
2022/05/18 02:02:39;;;;;;;32.20;19.27;;;;;;;13.48;100.00;97411.97;10255001;28;20054;-57
2022/05/18 02:07:38;;;;;;;30.98;19.63;;;;;;;13.42;100.00;97396.47;10255038;28;20046;-58
2022/05/18 02:12:37;;;;;;;31.27;18.90;;;;;;;13.46;100.00;97408.53;10254145;28;20104;-58
2022/05/18 02:17:37;;;;;;;30.92;18.95;;;;;;;13.42;100.00;97401.69;10255184;28;20081;-58
2022/05/18 02:22:36;;;;;;;31.13;18.85;;;;;;;13.42;100.00;97412.09;10254459;28;20058;-57
2022/05/18 02:27:35;;;;;;;25.70;17.73;;;;;;;13.41;100.00;97410.38;10254771;28;20509;-58
2022/05/18 02:32:34;;;;;;;26.45;16.67;;;;;;;13.26;100.00;97395.88;10253261;28;20545;-58
2022/05/18 02:37:34;;;;;;;28.17;16.50;;;;;;;13.25;100.00;97414.13;10289952;28;20057;-58
2022/05/18 02:42:33;;;;;;;22.88;15.80;;;;;;;13.25;100.00;97420.19;10295198;28;20057;-58
2022/05/18 02:47:32;;;;;;;26.88;16.73;;;;;;;13.20;100.00;97419.41;10266484;28;20054;-58
2022/05/18 02:52:32;;;;;;;28.23;17.52;;;;;;;13.18;100.00;97428.16;10254077;28;20066;-58
2022/05/18 02:57:31;;;;;;;25.45;17.00;;;;;;;13.15;100.00;97424.72;10252730;28;20128;-58
2022/05/18 03:02:30;;;;;;;;;;;;;;;13.13;100.00;97431.69;10254204;28;20062;-58
2022/05/18 03:07:28;;;;;;;28.63;16.25;;;;;;;13.10;100.00;97416.13;10253637;28;19956;-58
2022/05/18 03:12:27;;;;;;;24.98;16.58;;;;;;;13.21;100.00;97430.69;10252558;28;20042;-58
2022/05/18 03:17:27;;;;;;;24.58;16.35;;;;;;;13.30;100.00;97430.53;10248822;28;20528;-58
2022/05/18 03:27:44;;;;;;;25.58;16.63;;;;;;;13.45;100.00;97439.88;10215659;28;20069;-58
2022/05/18 03:32:44;;;;;;;23.33;15.20;;;;;;;13.60;100.00;97446.56;10216016;28;20070;-58
2022/05/18 03:37:43;;;;;;;23.45;14.68;;;;;;;13.69;100.00;97462.91;10251083;28;20525;-58
2022/05/18 03:42:42;;;;;;;32.35;19.77;;;;;;;13.56;100.00;97475.31;10255959;28;20034;-58
2022/05/18 03:47:42;;;;;;;28.77;18.98;;;;;;;13.59;100.00;97470.94;10255318;28;20399;-58
2022/05/18 03:52:41;;;;;;;32.97;19.58;;;;;;;13.70;100.00;97469.84;10253408;28;20084;-58
2022/05/18 03:57:40;;;;;;;35.60;19.65;;;;;;;13.83;100.00;97465.25;10254979;28;20037;-58
2022/05/18 04:02:40;;;;;;;28.45;18.55;;;;;;;13.95;100.00;97461.56;10254085;28;20030;-58
2022/05/18 04:07:39;;;;;;;24.52;16.20;;;;;;;14.05;100.00;97459.63;10254167;28;20798;-58
2022/05/18 04:12:38;;;;;;;25.95;15.82;;;;;;;14.15;100.00;97466.41;10254685;28;20106;-58
2022/05/18 04:17:37;;;;;;;25.45;16.83;;;;;;;14.22;100.00;97478.44;10269209;28;20496;-58
2022/05/18 04:22:36;;;;;;;25.17;16.85;;;;;;;14.27;100.00;97465.31;10254677;28;20049;-58
2022/05/18 04:27:35;;;;;;;27.48;18.23;;;;;;;14.32;100.00;97481.72;10253417;28;20042;-58
2022/05/18 04:32:38;;;;;;;26.23;18.20;;;;;;;14.44;100.00;97488.44;10264098;28;20060;-57
2022/05/18 04:37:37;;;;;;;27.60;18.85;;;;;;;14.49;100.00;97486.59;10258241;28;20080;-58
2022/05/18 04:42:36;;;;;;;;;;;;;;;14.51;100.00;97490.88;10254274;28;20066;-57
2022/05/18 04:47:35;;;;;;;26.20;18.17;;;;;;;14.53;100.00;97472.59;10256706;28;19949;-57
2022/05/18 04:52:34;;;;;;;;;;;;;;;14.71;100.00;97498.34;10261719;28;20074;-57
2022/05/18 04:57:33;;;;;;;22.55;17.02;;;;;;;14.64;100.00;97501.94;10287985;28;20016;-57
2022/05/18 05:02:37;;;;;;;22.98;16.63;;;;;;;14.72;100.00;97507.88;10251943;28;20089;-57
2022/05/18 05:07:36;;;;;;;21.70;15.32;;;;;;;14.83;100.00;97507.66;10256296;28;20470;-57
2022/05/18 05:12:35;;;;;;;;;;;;;;;14.83;100.00;97512.88;10258026;28;20456;-57
2022/05/18 05:17:33;;;;;;;20.80;14.80;;;;;;;15.04;100.00;97522.00;10254043;28;19957;-57
2022/05/18 05:22:32;;;;;;;;;;;;;;;15.16;100.00;97529.56;10257664;28;20038;-58
2022/05/18 05:27:31;;;;;;;20.10;16.02;;;;;;;15.34;100.00;97528.28;10254880;28;19976;-57
2022/05/18 05:32:30;;;;;;;18.73;16.00;;;;;;;15.22;100.00;97533.75;10256147;28;20070;-57
2022/05/18 05:37:29;;;;;;;;;;;;;;;15.29;100.00;97529.25;10259449;28;20045;-57
2022/05/18 05:42:28;;;;;;;19.10;15.98;;;;;;;15.05;100.00;97523.69;10259826;28;20262;-57
2022/05/18 05:47:27;;;;;;;;;;;;;;;15.17;100.00;97546.09;10245966;28;20464;-57
2022/05/18 05:52:26;;;;;;;18.80;15.93;;;;;;;15.27;100.00;97544.13;10259751;28;19997;-57
2022/05/18 05:57:25;;;;;;;;;;;;;;;15.48;100.00;97548.84;10238945;28;20066;-57
2022/05/18 06:02:24;;;;;;;19.53;15.57;;;;;;;15.60;100.00;97553.78;10218564;28;19950;-57
2022/05/18 06:07:23;;;;;;;;;;;;;;;15.72;100.00;97567.47;10218467;28;20031;-57
2022/05/18 06:12:25;;;;;;;16.20;13.27;;;;;;;15.84;100.00;97572.44;10248380;28;19956;-57
2022/05/18 06:17:24;;;;;;;20.77;15.52;;;;;;;16.07;100.00;97572.69;10257700;28;20061;-57
2022/05/18 06:22:25;;;;;;;14.52;12.52;;;;;;;16.39;100.00;97570.97;10257051;28;20073;-57
2022/05/18 06:27:24;;;;;;;15.23;12.25;;;;;;;16.80;100.00;97586.44;10254395;28;20084;-57
2022/05/18 06:32:23;;;;;;;13.73;10.07;;;;;;;17.15;100.00;97572.34;10274698;28;20073;-57
2022/05/18 06:37:22;;;;;;;11.23;10.02;;;;;;;17.58;100.00;97567.50;10253491;28;20121;-57
2022/05/18 06:42:21;;;;;;;14.50;10.80;;;;;;;17.66;100.00;97582.13;10253277;28;20121;-57
2022/05/18 06:47:20;;;;;;;15.15;12.82;;;;;;;17.43;100.00;97597.72;10285828;28;20476;-57
2022/05/18 06:52:19;;;;;;;16.33;13.27;;;;;;;16.82;100.00;97603.03;10269619;28;20421;-57
2022/05/18 06:57:18;;;;;;;15.30;12.85;;;;;;;17.14;100.00;97602.06;10251097;28;20081;-57
2022/05/18 07:02:17;;;;;;;18.42;14.38;;;;;;;17.19;100.00;97602.81;10247629;28;20042;-57
2022/05/18 07:07:16;;;;;;;19.48;14.45;;;;;;;17.55;100.00;97597.34;10251900;28;20062;-57
2022/05/18 07:12:15;;;;;;;17.30;12.98;;;;;;;18.15;100.00;97601.53;10249070;28;20073;-57
2022/05/18 07:17:15;;;;;;;14.88;12.63;;;;;;;18.63;100.00;97605.09;10254131;28;20038;-57
2022/05/18 07:22:13;;;;;;;14.85;12.43;;;;;;;18.93;100.00;97613.69;10269000;28;20125;-57
2022/05/18 07:27:12;;;;;;;16.80;12.27;;;;;;;18.98;94.31;97616.16;10280156;28;20040;-57
2022/05/18 07:32:14;;;;;;;12.90;10.98;;;;;;;18.88;95.24;97626.16;10252397;28;20081;-57
2022/05/18 07:37:15;;;;;;;11.82;9.30;;;;;;;18.84;92.72;97621.91;10251333;28;20070;-57
2022/05/18 07:42:14;;;;;;;13.60;9.82;;;;;;;19.26;96.78;97615.97;10261530;28;20065;-57
2022/05/18 07:47:13;;;;;;;14.63;10.50;;;;;;;19.71;91.50;97625.63;10249086;28;20026;-57
2022/05/18 07:52:12;;;;;;;15.10;9.48;;;;;;;19.86;91.72;97626.78;10249647;28;20018;-57
2022/05/18 07:57:11;;;;;;;12.13;8.75;;;;;;;19.93;88.14;97637.94;10248744;28;20128;-57
2022/05/18 08:02:10;;;;;;;12.38;8.50;;;;;;;20.08;88.01;97637.31;10249395;28;20069;-57
2022/05/18 08:07:09;;;;;;;10.13;8.40;;;;;;;20.07;nan;97636.47;10249737;28;20034;-57
2022/05/18 08:17:26;;;;;;;10.40;7.70;;;;;;;20.88;80.38;97640.06;10255469;28;20058;-57
2022/05/18 08:22:25;;;;;;;7.43;5.47;;;;;;;21.06;76.47;97645.47;10249449;28;20042;-57
2022/05/18 08:27:24;;;;;;;7.57;5.65;;;;;;;21.02;70.77;97650.00;10255689;28;20046;-57
2022/05/18 08:32:23;;;;;;;8.82;6.07;;;;;;;21.10;72.23;97649.66;10250403;28;20051;-58
2022/05/18 08:37:25;;;;;;;8.10;5.95;;;;;;;20.92;69.74;97651.34;10260558;28;20037;-58
2022/05/18 08:42:24;;;;;;;8.60;6.50;;;;;;;20.66;72.35;97661.25;10247491;28;20490;-58
2022/05/18 08:47:42;;;;;;;10.13;5.40;;;;;;;19.61;72.16;97669.91;10253084;28;20482;-58
2022/05/18 08:53:06;;;;;;;8.37;4.93;;;;;;;19.05;70.83;97672.88;10253860;28;20076;-58
2022/05/18 08:58:12;;;;;;;5.90;4.13;;;;;;;18.36;72.98;97685.75;10251122;28;20459;-58
2022/05/18 09:03:17;;;;;;;7.57;4.45;;;;;;;17.60;75.59;97689.03;10253652;28;20494;-57
2022/05/18 09:08:19;;;;;;;9.18;4.40;;;;;;;17.32;77.94;97710.81;10254122;28;20073;-58
2022/05/18 09:13:18;;;;;;;8.13;4.97;;;;;;;16.96;78.12;97700.47;10238891;28;20062;-58
2022/05/18 09:18:34;;;;;;;6.30;4.18;;;;;;;16.71;80.49;97716.81;10251634;28;20857;-58
2022/05/18 09:23:50;;;;;;;6.43;3.80;;;;;;;16.46;81.94;97715.72;10258066;28;20775;-58
2022/05/18 09:28:53;;;;;;;5.43;3.30;;;;;;;16.05;82.52;97733.31;10243091;28;20506;-57
2022/05/18 09:34:31;;;;;;;4.57;3.08;;;;;;;16.01;83.55;97734.28;10254227;28;20078;-58
2022/05/18 09:39:38;;;;;;;4.03;2.28;;;;;;;16.45;82.95;97758.53;10255037;28;20061;-58
2022/05/18 09:44:50;;;;;;;1.90;1.70;;;;;;;16.56;84.17;97776.59;10256359;28;20077;-58
2022/05/18 09:49:53;;;;;;;1.65;1.30;;;;;;;16.18;84.63;97783.59;10234446;28;20058;-57
2022/05/18 09:54:55;;;;;;;1.88;1.13;;;;;;;15.10;87.18;97818.94;10270499;28;20069;-58
2022/05/18 10:00:22;;;;;;;1.58;1.10;;;;;;;14.28;91.66;97807.19;10256191;28;20477;-57
2022/05/18 10:11:04;;;;;;;2.05;1.02;;;;;;;13.53;96.19;97832.47;10230055;28;20200;-57
2022/05/18 10:16:15;;;;;;;2.65;1.17;;;;;;;13.52;96.63;97854.22;10250842;28;20066;-57
2022/05/18 10:21:26;;;;;;;4.32;1.40;;;;;;;13.27;95.64;97895.31;10251975;28;20544;-57
2022/05/18 10:26:36;;;;;;;1.98;1.30;;;;;;;12.98;95.60;97894.72;10254943;28;20084;-57
2022/05/18 10:31:40;;;;;;;1.75;1.15;;;;;;;12.84;96.01;97906.13;10247596;28;20568;-57
2022/05/18 10:36:50;;;;;;;2.35;1.20;;;;;;;12.81;96.37;97928.69;10238331;28;20072;-58
2022/05/18 10:41:49;;;;;;;1.15;0.90;;;;;;;12.39;96.76;97935.91;10245825;28;20073;-57
2022/05/18 10:46:50;;;;;;;3.80;1.58;;;;;;;12.00;98.84;97956.00;10253217;28;20030;-56
2022/05/18 10:51:49;;;;;;;1.55;1.40;;;;;;;11.46;100.00;97967.38;10236541;28;20062;-57
2022/05/18 10:56:50;;;;;;;2.65;1.08;;;;;;;10.99;100.00;97963.06;10267138;28;20827;-57
2022/05/18 11:02:02;;;;;;;1.30;1.20;;;;;;;10.53;100.00;97999.28;10241274;28;20081;-58
2022/05/18 11:07:01;;;;;;;2.65;1.25;;;;;;;9.97;100.00;97999.91;10249946;28;20057;-58
2022/05/18 11:12:33;;;;;;;2.78;1.33;;;;;;;9.77;100.00;98026.59;10236089;28;20061;-60
2022/05/18 11:17:47;;;;;;;3.40;1.60;;;;;;;9.43;100.00;98058.28;10250250;28;20121;-59
2022/05/18 11:23:04;;;;;;;1.98;1.48;;;;;;;9.30;100.00;98062.47;10241981;28;20057;-61
2022/05/18 11:28:21;;;;;;;4.00;1.50;;;;;;;9.10;100.00;98076.09;10247842;28;20057;-61
2022/05/18 11:33:42;;;;;;;3.40;2.08;;;;;;;9.10;100.00;98085.56;10262905;28;20078;-60
2022/05/18 11:38:56;;;;;;;3.58;2.30;;;;;;;8.92;100.00;98079.34;10257874;28;20058;-59
2022/05/18 11:44:01;;;;;;;2.50;1.60;;;;;;;8.94;100.00;98089.72;10257719;28;20057;-60
2022/05/18 11:49:13;;;;;;;2.97;1.90;;;;;;;8.93;100.00;98088.00;10246286;28;20061;-59
2022/05/18 11:54:48;;;;;;;4.03;1.90;;;;;;;9.06;100.00;98104.50;10256788;28;20069;-59
2022/05/18 12:00:00;;;;;;;2.58;1.70;;;;;;;8.90;100.00;98104.38;10236459;28;20066;-58
2022/05/18 12:05:50;;;;;;;1.70;1.48;;;;;;;8.77;100.00;98112.81;10249390;28;20521;-59
2022/05/18 12:10:57;;;;;;;1.85;1.60;;;;;;;8.77;100.00;98118.00;10223493;28;20074;-58
2022/05/18 12:16:33;;;;;;;2.45;1.70;;;;;;;8.89;100.00;98105.19;10249771;28;20057;-59
2022/05/18 12:21:43;;;;;;;1.60;1.50;;;;;;;9.17;100.00;98117.59;10252918;28;20534;-59
2022/05/18 12:26:43;;;;;;;;;;;;;;;9.27;100.00;98125.44;10231125;28;20125;-59
2022/05/18 12:31:43;;;;;;;1.60;1.50;;;;;;;9.16;100.00;98127.06;10248943;28;19953;-58
2022/05/18 12:36:52;;;;;;;2.92;1.73;;;;;;;9.31;100.00;98124.66;10248773;28;20066;-59
2022/05/18 12:41:56;;;;;;;3.88;1.73;;;;;;;9.35;100.00;98139.38;10234058;28;20074;-59
2022/05/18 12:47:01;;;;;;;3.47;2.15;;;;;;;9.28;100.00;98142.78;10242273;28;20065;-59
2022/05/18 12:52:38;;;;;;;2.42;1.70;;;;;;;9.30;100.00;98140.19;10225285;28;20049;-59
2022/05/18 12:57:40;;;;;;;2.78;1.85;;;;;;;9.15;100.00;98135.69;10230991;28;20081;-59
2022/05/18 13:02:55;;;;;;;3.90;2.03;;;;;;;9.26;100.00;98154.78;10249650;28;20054;-59
2022/05/18 13:07:59;;;;;;;1.67;1.52;;;;;;;9.17;100.00;98144.34;10254108;28;20434;-58
2022/05/18 13:13:02;;;;;;;3.25;2.00;;;;;;;9.44;100.00;98163.63;10255132;28;20881;-59
2022/05/18 13:18:33;;;;;;;4.35;1.83;;;;;;;9.63;100.00;98159.50;10252931;28;20434;-59
2022/05/18 13:23:32;;;;;;;2.97;1.60;;;;;;;9.78;100.00;98159.63;10252122;28;20077;-59
2022/05/18 13:28:34;;;;;;;3.20;1.70;;;;;;;9.86;100.00;98167.47;10240992;28;20038;-59
2022/05/18 13:34:02;;;;;;;3.33;1.80;;;;;;;9.28;100.00;98139.28;10241901;28;20107;-59
2022/05/18 13:39:04;;;;;;;2.55;1.95;;;;;;;9.45;100.00;98173.16;10240729;28;20050;-61
2022/05/18 13:44:04;;;;;;;4.18;2.30;;;;;;;9.57;100.00;98181.91;10242300;28;20066;-61
2022/05/18 13:49:09;;;;;;;5.45;3.35;;;;;;;9.56;100.00;98177.59;10245649;28;20062;-58
2022/05/18 13:54:13;;;;;;;6.78;3.00;;;;;;;9.57;100.00;98171.53;10250917;28;20062;-61
2022/05/18 13:59:26;;;;;;;8.10;5.03;;;;;;;9.65;100.00;98158.69;10259356;28;20073;-60
2022/05/18 14:04:34;;;;;;;7.93;4.68;;;;;;;10.06;100.00;98191.84;10259386;28;20065;-60
2022/05/18 14:09:41;;;;;;;10.93;5.88;;;;;;;9.92;100.00;98199.50;10258598;28;20061;-60
2022/05/18 14:14:40;;;;;;;4.38;3.25;;;;;;;10.01;100.00;98203.91;10259416;28;20803;-60
2022/05/18 14:19:44;;;;;;;6.60;3.85;;;;;;;10.16;100.00;98214.38;10258023;28;20485;-60
2022/05/18 14:24:57;;;;;;;7.47;3.90;;;;;;;10.23;100.00;98230.88;10218301;28;20062;-60
2022/05/18 14:30:01;;;;;;;5.03;3.30;;;;;;;10.15;100.00;98222.19;10223875;28;20783;-60
2022/05/18 14:35:04;;;;;;;5.00;3.80;;;;;;;10.36;100.00;98203.31;10235871;28;20070;-58
2022/05/18 14:40:10;;;;;;;4.82;3.65;;;;;;;10.68;100.00;98216.47;10236644;28;20062;-58
2022/05/18 14:45:24;;;;;;;3.08;2.47;;;;;;;10.95;100.00;98217.53;10252735;28;20062;-58
2022/05/18 14:50:43;;;;;;;3.45;2.20;;;;;;;11.22;100.00;98227.16;10254903;28;20066;-58
2022/05/18 14:55:58;;;;;;;4.45;2.30;;;;;;;11.29;100.00;98228.94;10252973;28;20054;-58
2022/05/18 15:01:01;;;;;;;3.17;1.60;;;;;;;11.46;100.00;98248.06;10231593;28;20066;-58
2022/05/18 15:06:00;;;;;;;3.00;2.15;;;;;;;11.29;100.00;98254.03;10239995;28;20141;-58
2022/05/18 15:11:06;;;;;;;7.20;2.40;;;;;;;10.78;100.00;98254.63;10249620;28;20050;-58
2022/05/18 15:16:09;;;;;;;3.55;2.22;;;;;;;10.77;100.00;98265.00;10253649;28;20690;-58
2022/05/18 15:21:17;;;;;;;4.95;2.90;;;;;;;10.59;100.00;98283.91;10250706;28;20112;-58
2022/05/18 15:26:43;;;;;;;4.85;3.30;;;;;;;10.23;100.00;98307.81;10249659;28;20515;-58
2022/05/18 15:31:58;;;;;;;4.70;3.10;;;;;;;10.10;100.00;98322.41;10251285;28;20125;-58
2022/05/18 15:36:57;;;;;;;6.40;3.80;;;;;;;10.14;100.00;98327.66;10244838;28;20070;-58
2022/05/18 15:41:56;;;;;;;12.10;5.47;;;;;;;9.90;100.00;98345.53;10239066;28;20117;-58
2022/05/18 15:46:58;;;;;;;7.55;3.72;;;;;;;9.90;100.00;98358.47;10243246;28;20172;-58
2022/05/18 15:52:01;;;;;;;6.60;3.33;;;;;;;9.62;100.00;98371.09;10243908;28;20076;-59
2022/05/18 15:57:00;;;;;;;3.33;3.03;;;;;;;9.59;100.00;98380.56;10244390;28;20068;-59
2022/05/18 16:01:59;;;;;;;5.43;3.20;;;;;;;9.59;100.00;98396.13;10247501;28;20069;-59
2022/05/18 16:06:58;;;;;;;2.42;2.00;;;;;;;9.53;100.00;98402.06;10238614;28;20038;-59
2022/05/18 16:11:57;;;;;;;;;;;;;;;9.43;100.00;98401.09;10245605;28;20506;-60
2022/05/18 16:16:56;;;;;;;6.00;3.20;;;;;;;9.52;100.00;98380.47;10245517;28;20535;-61
2022/05/18 16:21:55;;;;;;;;;;;;;;;9.67;100.00;98389.31;10248271;28;20638;-60
2022/05/18 16:26:55;;;;;;;4.25;2.63;;;;;;;9.83;100.00;98400.75;10243926;28;19910;-60
2022/05/18 16:31:54;;;;;;;3.15;2.70;;;;;;;9.90;100.00;98402.56;10253749;28;20077;-61
2022/05/18 16:36:53;;;;;;;2.53;1.92;;;;;;;9.92;100.00;98413.81;10258476;28;20076;-60
2022/05/18 16:41:52;;;;;;;2.78;1.58;;;;;;;9.76;100.00;98418.78;10224951;28;20062;-60
2022/05/18 16:46:53;;;;;;;;;;;;;;;9.55;100.00;98428.88;10219974;28;20065;-61
2022/05/18 16:51:54;;;;;;;2.67;2.00;;;;;;;9.31;100.00;98427.69;10219180;28;19949;-60
2022/05/18 16:56:56;;;;;;;2.75;2.00;;;;;;;9.17;100.00;98433.47;10219092;28;20162;-60
2022/05/18 17:01:56;;;;;;;3.90;2.13;;;;;;;9.19;100.00;98440.41;10246119;28;20117;-61
2022/05/18 17:06:55;;;;;;;1.88;1.50;;;;;;;9.15;100.00;98447.25;10256061;28;20081;-61
2022/05/18 17:11:55;;;;;;;2.15;1.13;;;;;;;9.10;100.00;98443.72;10231498;28;20375;-60
2022/05/18 17:17:07;;;;;;;1.75;1.52;;;;;;;9.14;100.00;98442.06;10218056;28;20522;-61
2022/05/18 17:22:06;;;;;;;3.35;2.10;;;;;;;9.16;100.00;98427.44;10238055;28;20053;-61
2022/05/18 17:27:15;;;;;;;3.47;2.25;;;;;;;9.22;100.00;98453.41;10258011;28;20030;-61
2022/05/18 17:32:15;;;;;;;3.95;2.42;;;;;;;9.25;100.00;98455.16;10258202;28;20069;-61
2022/05/18 17:37:14;;;;;;;7.15;2.90;;;;;;;9.27;100.00;98472.47;10260469;28;20062;-60
2022/05/18 17:42:13;;;;;;;11.02;7.13;;;;;;;9.23;100.00;98494.00;10255487;28;20830;-60
2022/05/18 17:47:18;;;;;;;6.50;4.07;;;;;;;9.22;100.00;98493.97;10252873;28;20034;-60
2022/05/18 17:52:20;;;;;;;3.75;2.80;;;;;;;9.22;100.00;98491.38;10260323;28;20053;-60
2022/05/18 17:57:23;;;;;;;3.63;2.08;;;;;;;9.19;100.00;98499.13;10260110;28;20076;-59
2022/05/18 18:02:29;;;;;;;4.47;2.17;;;;;;;9.15;100.00;98504.22;10262729;28;20049;-59
2022/05/18 18:07:30;;;;;;;2.42;1.90;;;;;;;9.10;100.00;98516.22;10260774;28;20572;-60
2022/05/18 18:12:30;;;;;;;3.15;2.10;;;;;;;9.03;100.00;98516.97;10257714;28;20158;-59
2022/05/18 18:17:32;;;;;;;4.53;2.40;;;;;;;8.93;100.00;98525.44;10234106;28;20498;-59
2022/05/18 18:22:32;;;;;;;6.03;2.70;;;;;;;8.91;100.00;98540.91;10253191;28;20070;-59
2022/05/18 18:27:35;;;;;;;4.57;2.92;;;;;;;8.86;100.00;98550.31;10256116;28;20096;-59
2022/05/18 18:32:35;;;;;;;4.60;3.10;;;;;;;8.82;100.00;98560.59;10252529;28;20078;-59
2022/05/18 18:37:34;;;;;;;7.05;3.72;;;;;;;8.72;100.00;98570.75;10254720;28;20061;-59
2022/05/18 18:42:33;;;;;;;9.48;5.68;;;;;;;8.67;100.00;98587.91;10251239;28;20114;-59
2022/05/18 18:47:32;;;;;;;11.65;6.90;;;;;;;8.69;100.00;98606.03;10254507;28;20065;-59
2022/05/18 18:57:54;;;;;;;11.38;7.25;;;;;;;8.51;100.00;98620.34;10254030;28;20073;-59
2022/05/18 19:02:53;;;;;;;11.88;7.97;;;;;;;8.50;100.00;98639.31;10253851;28;20065;-59
2022/05/18 19:07:56;;;;;;;;;;;;;;;8.45;100.00;98646.06;10250473;28;20799;-59
2022/05/18 19:12:58;;;;;;;14.88;9.75;;;;;;;8.40;100.00;98644.25;10254262;28;20388;-59
2022/05/18 19:17:58;;;;;;;15.93;10.38;;;;;;;8.41;100.00;98656.31;10242174;28;20581;-59
2022/05/18 19:22:58;;;;;;;;;;;;;;;8.39;100.00;98664.06;10229088;28;20070;-59
2022/05/18 19:27:59;;;;;;;15.15;9.65;;;;;;;8.36;100.00;98669.16;10233080;28;20404;-59
2022/05/18 19:32:58;;;;;;;17.95;11.90;;;;;;;8.22;100.00;98655.03;10247170;28;20067;-59
2022/05/18 19:37:57;;;;;;;17.27;11.63;;;;;;;8.21;100.00;98664.50;10285118;28;20068;-59
2022/05/18 19:43:02;;;;;;;14.80;9.18;;;;;;;8.25;100.00;98683.56;10213076;28;20046;-59
2022/05/18 19:48:04;;;;;;;13.68;7.70;;;;;;;8.18;100.00;98677.38;10212510;28;20062;-59
2022/05/18 19:53:03;;;;;;;12.35;7.85;;;;;;;8.17;100.00;98682.50;10240567;28;20062;-59
2022/05/18 19:58:02;;;;;;;8.57;4.07;;;;;;;8.01;100.00;98682.16;10250382;28;20063;-59
2022/05/18 20:03:01;;;;;;;9.15;4.13;;;;;;;7.98;100.00;98697.56;10279990;28;20062;-59
2022/05/18 20:08:01;;;;;;;;;;;;;;;7.92;100.00;98702.63;10251071;28;20062;-59
2022/05/18 20:13:00;;;;;;;12.63;4.90;;;;;;;7.87;100.00;98714.53;10247227;28;19949;-59
2022/05/18 20:17:59;;;;;;;11.40;4.88;;;;;;;7.65;100.00;98688.16;10245199;28;20064;-59
2022/05/18 20:22:59;;;;;;;;;;;;;;;7.70;100.00;98716.69;10257302;28;20066;-59
2022/05/18 20:28:04;;;;;;;8.73;4.47;;;;;;;7.63;100.00;98719.94;10250580;28;19948;-59
2022/05/18 20:33:04;;;;;;;15.10;6.80;;;;;;;7.33;100.00;98702.75;10258630;28;20074;-59
2022/05/18 20:38:04;;;;;;;13.82;6.75;;;;;;;7.23;100.00;98714.53;10250305;28;20065;-59
2022/05/18 20:43:03;;;;;;;10.95;6.45;;;;;;;7.23;100.00;98714.53;10250539;28;20069;-59
2022/05/18 20:48:03;;;;;;;;;;;;;;;7.16;100.00;98711.75;10251139;28;20524;-59
2022/05/18 20:53:02;;;;;;;18.10;8.03;;;;;;;7.07;100.00;98707.19;10250287;28;19949;-59
2022/05/18 20:58:01;;;;;;;15.43;6.75;;;;;;;7.08;100.00;98716.72;10250773;28;20045;-59
2022/05/18 21:03:00;;;;;;;24.35;7.88;;;;;;;7.05;100.00;98724.34;10250265;28;20066;-59
2022/05/18 21:07:59;;;;;;;21.30;8.23;;;;;;;7.11;100.00;98737.44;10279193;28;20469;-59
2022/05/18 21:12:58;;;;;;;58.58;12.38;;;;;;;7.23;100.00;98730.03;10250263;28;20557;-59
2022/05/18 21:17:58;;;;;;;34.92;11.38;;;;;;;7.33;100.00;98740.63;10252278;28;20069;-59
2022/05/18 21:22:57;;;;;;;24.38;11.20;;;;;;;7.34;100.00;98742.38;10232795;28;20512;-59
2022/05/18 21:27:56;;;;;;;24.27;12.23;;;;;;;7.40;100.00;98755.47;10244964;28;20363;-59
2022/05/18 21:32:55;;;;;;;;;;;;;;;7.45;100.00;98754.78;10257805;28;20078;-59
2022/05/18 21:37:58;;;;;;;33.13;14.85;;;;;;;7.48;100.00;98754.00;10292007;28;20343;-59
2022/05/18 21:42:58;;;;;;;27.27;13.38;;;;;;;7.57;100.00;98755.94;10249585;28;20101;-59
2022/05/18 21:48:00;;;;;;;20.73;10.82;;;;;;;7.68;100.00;98757.09;10256856;28;20161;-58
2022/05/18 21:52:59;;;;;;;20.27;10.63;;;;;;;7.75;100.00;98751.25;10256723;28;20062;-58
2022/05/18 21:58:00;;;;;;;20.48;10.63;;;;;;;7.82;100.00;98760.03;10254069;28;20026;-58
2022/05/18 22:03:01;;;;;;;27.95;10.65;;;;;;;7.86;100.00;98755.00;10242999;28;20149;-59
2022/05/18 22:08:00;;;;;;;19.85;9.75;;;;;;;7.87;100.00;98750.69;10254594;28;20054;-58
2022/05/18 22:12:59;;;;;;;22.80;9.30;;;;;;;7.91;100.00;98757.69;10251908;28;20060;-58
2022/05/18 22:17:58;;;;;;;18.13;9.15;;;;;;;7.90;100.00;98762.81;10251846;28;20026;-58
2022/05/18 22:22:57;;;;;;;20.40;9.32;;;;;;;7.90;100.00;98760.22;10252792;28;20040;-58
2022/05/18 22:27:56;;;;;;;21.88;9.00;;;;;;;7.92;100.00;98763.75;10228301;28;20126;-58
2022/05/18 22:32:56;;;;;;;21.50;9.95;;;;;;;7.93;100.00;98768.97;10241393;28;20082;-59
2022/05/18 22:37:55;;;;;;;21.70;9.30;;;;;;;7.89;100.00;98774.88;10240003;28;20070;-58
2022/05/18 22:42:57;;;;;;;17.95;9.00;;;;;;;7.75;100.00;98771.06;10242666;28;20027;-59
2022/05/18 22:48:03;;;;;;;18.25;7.93;;;;;;;7.75;100.00;98778.81;10254282;28;20532;-59
2022/05/18 22:53:03;;;;;;;19.70;7.53;;;;;;;7.49;100.00;98766.06;10254338;28;20045;-58
2022/05/18 22:58:03;;;;;;;23.63;8.82;;;;;;;7.31;100.00;98770.69;10256981;28;20072;-58
2022/05/18 23:03:03;;;;;;;19.95;8.45;;;;;;;7.27;100.00;98779.19;10255434;28;20081;-58
2022/05/18 23:08:02;;;;;;;18.10;7.63;;;;;;;7.22;100.00;98791.97;10255931;28;20151;-58
2022/05/18 23:13:01;;;;;;;21.75;7.72;;;;;;;7.12;100.00;98788.22;10256611;28;20504;-58
2022/05/18 23:18:00;;;;;;;13.05;6.25;;;;;;;6.82;100.00;98799.41;10249527;28;20545;-58
2022/05/18 23:28:17;;;;;;;11.02;5.90;;;;;;;6.38;100.00;98793.72;10253026;28;20073;-58
2022/05/18 23:33:30;;;;;;;11.82;6.22;;;;;;;6.16;100.00;98798.97;10246949;28;20051;-58
2022/05/18 23:38:29;;;;;;;11.65;5.82;;;;;;;6.08;100.00;98801.31;10239460;28;20065;-58
2022/05/18 23:43:29;;;;;;;13.85;6.10;;;;;;;6.04;100.00;98798.56;10251744;28;20064;-58